Time;durP1;ratioP1;P1;durP2;ratioP2;P2;SDS_P1;SDS_P2;PMS_P1;PMS_P2;Temp;Humidity;BMP_temperature;BMP_pressure;BME280_temperature;BME280_humidity;BME280_pressure;Samples;Min_cycle;Max_cycle;Signal;HPM_P1;HPM_P2
2023/07/25 00:00:24;;;;;;;8.82;3.25;;;17.90;99.90;;;;;;5057433;28;20036;-75
2023/07/25 00:02:50;;;;;;;6.78;2.70;;;17.90;99.90;;;;;;5057981;28;20040;-72
2023/07/25 00:05:15;;;;;;;9.55;3.45;;;17.80;99.90;;;;;;5057597;28;20400;-73
2023/07/25 00:07:41;;;;;;;5.35;3.08;;;17.90;99.90;;;;;;5058324;28;20044;-73
2023/07/25 00:10:07;;;;;;;3.92;2.47;;;17.80;99.90;;;;;;5057729;28;20055;-75
2023/07/25 00:12:35;;;;;;;4.75;2.40;;;17.80;99.90;;;;;;5058595;28;20036;-72
2023/07/25 00:15:02;;;;;;;8.95;2.90;;;17.90;99.90;;;;;;5056505;28;20044;-72
2023/07/25 00:17:27;;;;;;;5.38;2.88;;;17.80;99.90;;;;;;5056817;28;20048;-73
2023/07/25 00:19:53;;;;;;;6.40;2.92;;;17.80;99.90;;;;;;5057270;28;20021;-74
2023/07/25 00:22:19;;;;;;;4.35;2.72;;;17.80;99.90;;;;;;5057768;28;20455;-74
2023/07/25 00:24:45;;;;;;;5.68;3.10;;;17.80;99.90;;;;;;5057253;28;20050;-75
2023/07/25 00:27:10;;;;;;;7.60;2.78;;;17.80;99.90;;;;;;5057281;28;20060;-74
2023/07/25 00:29:36;;;;;;;6.10;2.95;;;17.80;99.90;;;;;;5057165;28;20036;-74
2023/07/25 00:32:02;;;;;;;6.47;3.10;;;17.80;99.90;;;;;;5052407;28;20041;-74
2023/07/25 00:34:28;;;;;;;4.13;2.90;;;17.80;99.90;;;;;;5048225;28;20128;-74
2023/07/25 00:36:54;;;;;;;5.63;2.53;;;17.80;99.90;;;;;;5056570;28;20444;-73
2023/07/25 00:39:19;;;;;;;5.47;2.70;;;17.80;99.90;;;;;;5056816;28;20063;-74
2023/07/25 00:41:45;;;;;;;9.40;3.22;;;17.80;99.90;;;;;;5056737;28;20032;-73
2023/07/25 00:44:11;;;;;;;10.07;3.28;;;17.70;99.90;;;;;;5056706;28;20120;-74
2023/07/25 00:46:36;;;;;;;6.90;2.88;;;17.70;99.90;;;;;;5056982;28;20082;-73
2023/07/25 00:49:05;;;;;;;14.25;3.47;;;17.70;99.90;;;;;;5056546;28;20548;-73
2023/07/25 00:51:31;;;;;;;5.05;2.60;;;17.60;99.90;;;;;;5055243;28;20021;-74
2023/07/25 00:53:57;;;;;;;6.80;2.53;;;17.60;99.90;;;;;;5056352;28;20626;-75
2023/07/25 00:56:24;;;;;;;8.07;3.33;;;17.50;99.90;;;;;;5057317;28;20033;-73
2023/07/25 00:58:49;;;;;;;7.53;2.70;;;17.50;99.90;;;;;;5056840;28;20037;-74
2023/07/25 01:01:15;;;;;;;6.85;2.88;;;17.50;99.90;;;;;;5057312;28;20033;-74
2023/07/25 01:03:41;;;;;;;4.95;2.63;;;17.50;99.90;;;;;;5057071;28;20025;-74
2023/07/25 01:06:12;;;;;;;5.53;2.58;;;17.50;99.90;;;;;;5057374;28;20544;-73
2023/07/25 01:08:56;;;;;;;8.88;2.78;;;17.60;99.90;;;;;;5056762;28;20044;-74
2023/07/25 01:11:23;;;;;;;5.78;2.88;;;17.60;99.90;;;;;;5055916;28;20105;-75
2023/07/25 01:13:50;;;;;;;9.07;2.90;;;17.60;99.90;;;;;;5056786;28;20025;-73
2023/07/25 01:16:19;;;;;;;5.80;2.53;;;17.60;99.90;;;;;;5056549;28;20033;-74
2023/07/25 01:18:45;;;;;;;6.35;2.58;;;17.70;99.90;;;;;;5057782;28;20025;-75
2023/07/25 01:21:12;;;;;;;8.10;2.42;;;17.70;99.90;;;;;;5055097;28;20021;-74
2023/07/25 01:23:38;;;;;;;9.02;2.88;;;17.60;99.90;;;;;;5056345;28;20094;-74
2023/07/25 01:26:04;;;;;;;4.07;2.33;;;17.60;99.90;;;;;;5055239;28;20036;-75
2023/07/25 01:28:30;;;;;;;8.50;3.13;;;17.60;99.90;;;;;;5057202;28;20020;-74
2023/07/25 01:30:56;;;;;;;6.20;2.60;;;17.50;99.90;;;;;;5056548;28;20078;-75
2023/07/25 01:33:23;;;;;;;3.85;2.20;;;17.60;99.90;;;;;;5057253;28;20435;-74
2023/07/25 01:35:48;;;;;;;7.90;2.90;;;17.60;99.90;;;;;;5056787;28;20037;-74
2023/07/25 01:38:14;;;;;;;6.95;2.60;;;17.60;99.90;;;;;;5057203;28;20031;-74
2023/07/25 01:40:41;;;;;;;7.18;2.80;;;17.60;99.90;;;;;;5056433;28;20029;-75
2023/07/25 01:43:07;;;;;;;5.75;2.60;;;17.60;99.90;;;;;;5057817;28;20361;-75
2023/07/25 01:45:33;;;;;;;9.73;2.63;;;17.60;99.90;;;;;;5056407;28;20621;-74
2023/07/25 01:47:59;;;;;;;7.63;3.17;;;17.60;99.90;;;;;;5057872;28;20017;-75
2023/07/25 01:50:28;;;;;;;5.00;2.55;;;17.60;99.90;;;;;;5057008;28;20473;-74
2023/07/25 01:52:54;;;;;;;7.55;2.70;;;17.70;99.90;;;;;;5058412;28;20103;-72
2023/07/25 01:55:20;;;;;;;10.05;2.90;;;17.70;99.90;;;;;;5057459;28;20102;-75
2023/07/25 01:57:46;;;;;;;5.53;2.85;;;17.70;99.90;;;;;;5059899;28;20026;-75
2023/07/25 02:00:12;;;;;;;4.88;2.70;;;17.60;99.90;;;;;;5055993;28;20032;-75
2023/07/25 02:02:37;;;;;;;7.00;2.53;;;17.70;99.90;;;;;;5059092;28;20242;-75
2023/07/25 02:05:03;;;;;;;9.63;2.42;;;17.70;99.90;;;;;;5057550;28;20083;-74
2023/07/25 02:07:29;;;;;;;5.75;2.45;;;17.70;99.90;;;;;;5059059;28;20021;-75
2023/07/25 02:09:55;;;;;;;8.27;2.65;;;17.70;99.90;;;;;;5057228;28;20029;-75
2023/07/25 02:12:20;;;;;;;6.05;2.55;;;17.60;99.90;;;;;;5058847;28;20097;-73
2023/07/25 02:14:46;;;;;;;4.97;2.47;;;17.60;99.90;;;;;;5055833;28;20044;-74
2023/07/25 02:17:12;;;;;;;6.38;2.30;;;17.60;99.90;;;;;;5054432;28;20029;-74
2023/07/25 02:19:38;;;;;;;5.95;2.45;;;17.60;99.90;;;;;;5055702;28;20403;-74
2023/07/25 02:22:07;;;;;;;7.43;2.75;;;17.60;99.90;;;;;;5054887;28;20036;-74
2023/07/25 02:24:33;;;;;;;4.75;2.22;;;17.70;99.90;;;;;;5058546;28;20029;-73
2023/07/25 02:26:58;;;;;;;6.95;2.30;;;17.70;99.90;;;;;;5060690;28;20035;-74
2023/07/25 02:29:24;;;;;;;6.57;2.60;;;17.70;99.90;;;;;;5059781;28;20170;-71
2023/07/25 02:31:50;;;;;;;8.60;2.42;;;17.70;99.90;;;;;;5059499;28;20027;-74
2023/07/25 02:34:16;;;;;;;7.85;2.63;;;17.70;99.90;;;;;;5059129;28;20053;-74
2023/07/25 02:36:42;;;;;;;9.35;2.30;;;17.60;99.90;;;;;;5059219;28;20029;-75
2023/07/25 02:39:08;;;;;;;4.07;2.33;;;17.60;99.90;;;;;;5049452;28;20033;-73
2023/07/25 02:41:35;;;;;;;6.18;2.75;;;17.60;99.90;;;;;;5056583;28;20024;-74
2023/07/25 02:44:00;;;;;;;7.32;2.65;;;17.60;99.90;;;;;;5059542;28;20182;-73
2023/07/25 02:46:26;;;;;;;6.47;2.38;;;17.60;99.90;;;;;;5059454;28;20039;-75
2023/07/25 02:48:52;;;;;;;6.13;2.22;;;17.60;99.90;;;;;;5059743;28;20492;-74
2023/07/25 02:51:18;;;;;;;4.22;2.50;;;17.60;99.90;;;;;;5060113;28;20027;-75
2023/07/25 02:53:44;;;;;;;11.93;3.20;;;17.60;99.90;;;;;;5058856;28;20112;-74
2023/07/25 02:56:10;;;;;;;6.93;2.67;;;17.60;99.90;;;;;;5056468;28;20049;-75
2023/07/25 02:58:35;;;;;;;7.95;2.60;;;17.60;99.90;;;;;;5049816;28;20029;-74
2023/07/25 03:01:01;;;;;;;9.55;3.15;;;17.60;99.90;;;;;;5054190;28;20075;-74
2023/07/25 03:03:26;;;;;;;11.25;3.00;;;17.50;99.90;;;;;;5049153;28;20025;-75
2023/07/25 03:05:52;;;;;;;6.28;2.55;;;17.50;99.90;;;;;;5057935;28;20059;-74
2023/07/25 03:08:18;;;;;;;8.20;3.17;;;17.50;99.90;;;;;;5058125;28;20132;-75
2023/07/25 03:10:43;;;;;;;8.63;3.05;;;17.40;99.90;;;;;;5057290;28;20013;-75
2023/07/25 03:13:09;;;;;;;8.50;3.08;;;17.40;99.90;;;;;;5058621;28;20051;-75
2023/07/25 03:15:35;;;;;;;10.48;4.38;;;17.40;99.90;;;;;;5057165;28;20024;-73
2023/07/25 03:18:00;;;;;;;7.72;3.15;;;17.40;99.90;;;;;;5058543;28;20214;-75
2023/07/25 03:20:26;;;;;;;7.15;3.45;;;17.30;99.90;;;;;;5058045;28;20021;-74
2023/07/25 03:22:52;;;;;;;7.68;2.80;;;17.30;99.90;;;;;;5057708;28;20044;-74
2023/07/25 03:25:17;;;;;;;11.38;3.20;;;17.30;99.90;;;;;;5056910;28;20039;-75
2023/07/25 03:27:43;;;;;;;12.65;3.17;;;17.30;99.90;;;;;;5048040;28;20517;-75
2023/07/25 03:30:09;;;;;;;10.00;3.05;;;17.30;99.90;;;;;;5054199;28;20441;-75
2023/07/25 03:32:35;;;;;;;6.72;2.88;;;17.30;99.90;;;;;;5049145;28;20021;-75
2023/07/25 03:35:00;;;;;;;9.48;3.42;;;17.30;99.90;;;;;;5051180;28;20021;-75
2023/07/25 03:37:26;;;;;;;10.85;3.58;;;17.30;99.90;;;;;;5058198;28;20037;-75
2023/07/25 03:39:52;;;;;;;9.07;2.83;;;17.30;99.90;;;;;;5058440;28;20093;-75
2023/07/25 03:42:17;;;;;;;7.68;3.08;;;17.30;99.90;;;;;;5057573;28;20083;-74
2023/07/25 03:44:43;;;;;;;9.05;2.95;;;17.20;99.90;;;;;;5057937;28;20108;-75
2023/07/25 03:47:09;;;;;;;8.40;2.92;;;17.20;99.90;;;;;;5057992;28;20103;-75
2023/07/25 03:49:34;;;;;;;11.18;4.68;;;17.20;99.90;;;;;;5058679;28;20033;-74
2023/07/25 03:52:00;;;;;;;9.57;3.45;;;17.20;99.90;;;;;;5058130;28;20071;-73
2023/07/25 03:54:26;;;;;;;13.00;3.15;;;17.10;99.90;;;;;;5056526;28;20080;-73
2023/07/25 03:56:51;;;;;;;15.25;4.75;;;17.20;99.90;;;;;;5057718;28;20107;-73
2023/07/25 03:59:18;;;;;;;10.98;4.93;;;17.20;99.90;;;;;;5043104;28;20040;-74
2023/07/25 04:01:44;;;;;;;13.07;4.05;;;17.20;99.90;;;;;;5057459;28;20029;-73
2023/07/25 04:04:09;;;;;;;9.95;3.05;;;17.20;99.90;;;;;;5058083;28;20036;-73
2023/07/25 04:06:36;;;;;;;5.68;3.15;;;17.20;99.90;;;;;;5075516;28;20059;-74
2023/07/25 04:09:02;;;;;;;12.43;4.57;;;17.20;99.90;;;;;;5076198;28;20418;-75
2023/07/25 04:11:27;;;;;;;11.35;3.25;;;17.20;99.90;;;;;;5076650;28;20039;-73
2023/07/25 04:13:53;;;;;;;7.50;3.22;;;17.20;99.90;;;;;;5074365;28;20071;-73
2023/07/25 04:16:19;;;;;;;13.45;3.20;;;17.20;99.90;;;;;;5057428;28;20040;-76
2023/07/25 04:18:44;;;;;;;14.00;4.00;;;17.20;99.90;;;;;;5058300;28;20025;-75
2023/07/25 04:21:10;;;;;;;8.20;3.60;;;17.30;99.90;;;;;;5057692;28;20108;-74
2023/07/25 04:23:36;;;;;;;14.18;3.45;;;17.30;99.90;;;;;;5055828;28;20037;-73
2023/07/25 04:26:02;;;;;;;11.25;3.92;;;17.30;99.90;;;;;;5057092;28;20049;-74
2023/07/25 04:28:27;;;;;;;12.07;3.45;;;17.30;99.90;;;;;;5056237;28;20035;-73
2023/07/25 04:30:53;;;;;;;12.07;3.70;;;17.30;99.90;;;;;;5056549;28;20056;-74
2023/07/25 04:33:19;;;;;;;12.23;4.07;;;17.30;99.90;;;;;;5057508;28;20032;-73
2023/07/25 04:35:45;;;;;;;17.73;4.00;;;17.20;99.90;;;;;;5056850;28;20029;-74
2023/07/25 04:38:12;;;;;;;9.82;3.80;;;17.20;99.90;;;;;;5057158;28;20025;-73
2023/07/25 04:40:38;;;;;;;9.77;3.50;;;17.20;99.90;;;;;;5056591;28;20025;-74
2023/07/25 04:43:03;;;;;;;10.13;4.28;;;17.20;99.90;;;;;;5043027;28;20663;-74
2023/07/25 04:45:29;;;;;;;9.55;3.58;;;17.20;99.90;;;;;;5054164;28;20033;-72
2023/07/25 04:47:55;;;;;;;8.85;2.92;;;17.30;99.90;;;;;;5057350;28;20074;-72
2023/07/25 04:50:20;;;;;;;12.73;2.72;;;17.30;99.90;;;;;;5047584;28;20025;-72
2023/07/25 04:52:46;;;;;;;14.07;3.38;;;17.30;99.90;;;;;;5053393;28;20512;-72
2023/07/25 04:55:12;;;;;;;14.95;3.95;;;17.20;99.90;;;;;;5056828;28;20401;-72
2023/07/25 04:57:37;;;;;;;13.57;3.45;;;17.10;99.90;;;;;;5057989;28;20028;-71
2023/07/25 05:00:05;;;;;;;11.52;2.75;;;16.80;99.90;;;;;;5057004;28;20021;-72
2023/07/25 05:02:30;;;;;;;7.07;2.80;;;16.70;99.90;;;;;;5057929;28;20052;-71
2023/07/25 05:04:56;;;;;;;4.75;2.60;;;16.50;99.90;;;;;;5055374;28;20143;-71
2023/07/25 05:07:22;;;;;;;7.35;2.75;;;16.40;99.90;;;;;;5057726;28;20548;-73
2023/07/25 05:09:47;;;;;;;10.23;3.33;;;16.40;99.90;;;;;;5057036;28;20028;-73
2023/07/25 05:12:13;;;;;;;11.00;3.47;;;16.30;99.90;;;;;;5063047;28;20023;-73
2023/07/25 05:14:40;;;;;;;10.70;2.88;;;16.30;99.90;;;;;;5059313;28;20025;-73
2023/07/25 05:17:05;;;;;;;9.98;3.60;;;16.30;99.90;;;;;;5056290;28;20100;-72
2023/07/25 05:19:31;;;;;;;10.75;3.65;;;16.30;99.90;;;;;;5056232;28;20045;-72
2023/07/25 05:21:57;;;;;;;7.00;3.30;;;16.30;99.90;;;;;;5055599;28;20033;-71
2023/07/25 05:24:25;;;;;;;9.18;3.42;;;16.30;99.90;;;;;;5055338;28;20060;-73
2023/07/25 05:26:51;;;;;;;10.23;3.40;;;16.40;99.90;;;;;;5055216;28;20053;-73
2023/07/25 05:29:17;;;;;;;13.05;3.65;;;16.50;99.90;;;;;;5055695;28;20473;-72
2023/07/25 05:31:43;;;;;;;8.25;3.22;;;16.60;99.90;;;;;;5055883;28;20415;-73
2023/07/25 05:34:08;;;;;;;9.80;3.55;;;16.60;99.90;;;;;;5054345;28;20484;-72
2023/07/25 05:36:34;;;;;;;9.05;3.45;;;16.70;99.90;;;;;;5055868;28;20485;-72
2023/07/25 05:38:59;;;;;;;8.27;3.13;;;16.70;99.90;;;;;;5053961;28;20028;-73
2023/07/25 05:41:25;;;;;;;10.95;3.42;;;16.70;99.90;;;;;;5056364;28;20043;-73
2023/07/25 05:43:51;;;;;;;7.22;3.75;;;16.70;99.90;;;;;;5054550;28;20547;-72
2023/07/25 05:46:16;;;;;;;14.02;3.80;;;16.80;99.90;;;;;;5056497;28;20087;-73
2023/07/25 05:48:42;;;;;;;11.52;3.10;;;16.80;99.90;;;;;;5055077;28;20135;-72
2023/07/25 05:51:09;;;;;;;9.50;3.40;;;16.80;99.90;;;;;;5054503;28;20025;-73
2023/07/25 05:53:35;;;;;;;12.45;3.25;;;16.90;99.90;;;;;;5054835;28;20506;-73
2023/07/25 05:56:01;;;;;;;8.73;3.10;;;17.00;99.90;;;;;;5056890;28;20060;-73
2023/07/25 05:58:28;;;;;;;12.13;3.35;;;17.00;99.90;;;;;;5057706;28;20032;-73
2023/07/25 06:00:53;;;;;;;10.77;4.82;;;17.10;99.90;;;;;;5061192;28;20032;-73
2023/07/25 06:03:19;;;;;;;8.05;4.38;;;17.20;99.90;;;;;;5059746;28;20017;-73
2023/07/25 06:05:45;;;;;;;7.70;4.00;;;17.20;99.90;;;;;;5060856;28;20061;-73
2023/07/25 06:08:11;;;;;;;6.97;3.00;;;17.20;99.90;;;;;;5059887;28;20064;-73
2023/07/25 06:10:37;;;;;;;15.10;3.38;;;17.30;99.90;;;;;;5061163;28;20021;-73
2023/07/25 06:13:04;;;;;;;9.95;3.10;;;17.40;99.90;;;;;;5059980;28;20017;-72
2023/07/25 06:15:35;;;;;;;8.13;3.58;;;17.40;99.90;;;;;;5060100;28;20029;-72
2023/07/25 06:18:04;;;;;;;6.72;3.22;;;17.50;99.90;;;;;;5059355;28;20033;-74
2023/07/25 06:20:32;;;;;;;10.70;3.05;;;17.50;99.90;;;;;;5059125;28;20032;-73
2023/07/25 06:23:01;;;;;;;6.13;2.95;;;17.50;99.90;;;;;;5059274;28;20049;-72
2023/07/25 06:25:27;;;;;;;9.68;3.30;;;17.50;99.90;;;;;;5059234;28;20074;-72
2023/07/25 06:27:53;;;;;;;15.30;3.13;;;17.50;99.90;;;;;;5046158;28;20025;-71
2023/07/25 06:30:19;;;;;;;6.57;3.35;;;17.50;99.90;;;;;;5051518;28;20064;-71
2023/07/25 06:32:45;;;;;;;10.20;2.63;;;17.40;99.90;;;;;;5056323;28;20013;-72
2023/07/25 06:35:10;;;;;;;8.02;2.85;;;17.40;99.90;;;;;;5054650;28;20080;-71
2023/07/25 06:37:37;;;;;;;8.43;4.60;;;17.40;99.90;;;;;;5055807;28;20025;-74
2023/07/25 06:40:03;;;;;;;12.82;3.42;;;17.50;99.90;;;;;;5062203;28;20029;-72
2023/07/25 06:42:29;;;;;;;8.00;2.80;;;17.60;99.90;;;;;;5058164;28;20021;-72
2023/07/25 06:44:56;;;;;;;9.18;3.38;;;17.60;99.90;;;;;;5059889;28;20039;-73
2023/07/25 06:47:21;;;;;;;9.10;3.58;;;17.70;99.90;;;;;;5057281;28;20104;-72
2023/07/25 06:49:47;;;;;;;11.07;3.28;;;17.90;99.90;;;;;;5057601;28;20061;-73
2023/07/25 06:52:13;;;;;;;14.32;3.75;;;18.10;99.90;;;;;;5062074;28;20032;-71
2023/07/25 06:54:39;;;;;;;5.57;2.72;;;18.30;99.90;;;;;;5057603;28;20098;-73
2023/07/25 06:57:05;;;;;;;8.10;3.13;;;18.40;99.90;;;;;;5058019;28;20048;-73
2023/07/25 06:59:30;;;;;;;10.68;4.53;;;18.30;99.90;;;;;;5051061;28;20036;-71
2023/07/25 07:01:57;;;;;;;7.32;3.33;;;18.20;99.90;;;;;;5060545;28;20033;-73
2023/07/25 07:04:23;;;;;;;9.02;3.17;;;18.20;99.90;;;;;;5057790;28;20440;-72
2023/07/25 07:06:48;;;;;;;9.35;2.75;;;18.10;99.90;;;;;;5058365;28;20037;-72
2023/07/25 07:09:14;;;;;;;14.85;3.35;;;18.00;99.90;;;;;;5055524;28;20386;-73
2023/07/25 07:11:40;;;;;;;13.43;3.97;;;18.10;99.90;;;;;;5050890;28;20044;-74
2023/07/25 07:14:06;;;;;;;9.18;2.83;;;18.10;99.90;;;;;;5057390;28;20102;-73
2023/07/25 07:16:32;;;;;;;10.18;3.33;;;18.30;99.90;;;;;;5055916;28;20029;-72
2023/07/25 07:18:57;;;;;;;14.05;3.60;;;18.40;99.90;;;;;;5061150;28;20036;-73
2023/07/25 07:21:23;;;;;;;10.73;2.72;;;18.50;99.90;;;;;;5057648;28;20108;-72
2023/07/25 07:23:49;;;;;;;12.00;3.38;;;18.60;99.90;;;;;;5059201;28;20041;-72
2023/07/25 07:26:14;;;;;;;91.28;28.95;;;18.70;99.90;;;;;;5058912;28;20059;-71
2023/07/25 07:28:41;;;;;;;5.40;2.13;;;18.90;99.90;;;;;;5056615;28;20511;-73
2023/07/25 07:31:09;;;;;;;6.03;2.90;;;19.00;99.90;;;;;;5059367;28;20020;-72
2023/07/25 07:33:35;;;;;;;8.32;3.03;;;19.00;99.90;;;;;;5055567;28;20389;-73
2023/07/25 07:36:00;;;;;;;9.10;2.63;;;19.00;99.90;;;;;;5053853;28;20032;-75
2023/07/25 07:38:26;;;;;;;13.30;3.05;;;19.00;99.90;;;;;;5058742;28;20032;-73
2023/07/25 07:40:51;;;;;;;7.65;3.45;;;18.80;99.90;;;;;;5058331;28;20044;-72
2023/07/25 07:43:17;;;;;;;13.32;2.92;;;18.80;99.90;;;;;;5056826;28;20032;-73
2023/07/25 07:45:43;;;;;;;7.50;3.13;;;18.80;99.90;;;;;;5059104;28;21664;-73
2023/07/25 07:48:08;;;;;;;9.13;3.60;;;18.80;99.90;;;;;;5056978;28;20867;-72
2023/07/25 07:50:34;;;;;;;6.43;2.63;;;18.90;99.90;;;;;;5053339;28;20032;-73
2023/07/25 07:53:00;;;;;;;9.35;3.20;;;19.00;99.90;;;;;;5061900;28;20036;-72
2023/07/25 07:55:25;;;;;;;7.88;2.60;;;19.00;99.90;;;;;;5055957;28;20028;-71
2023/07/25 07:57:51;;;;;;;11.60;3.95;;;19.10;99.90;;;;;;5056365;28;20068;-71
2023/07/25 08:00:17;;;;;;;6.75;2.28;;;19.00;99.90;;;;;;5061372;28;20062;-72
2023/07/25 08:02:44;;;;;;;10.32;2.47;;;19.10;99.90;;;;;;5056982;28;20060;-72
2023/07/25 08:05:11;;;;;;;9.82;3.47;;;19.10;99.90;;;;;;5058956;28;20028;-71
2023/07/25 08:07:37;;;;;;;7.20;2.92;;;19.00;99.90;;;;;;5054604;28;20486;-71
2023/07/25 08:10:03;;;;;;;10.88;2.63;;;18.90;99.90;;;;;;5053788;28;20428;-71
2023/07/25 08:12:29;;;;;;;4.57;2.40;;;19.00;99.90;;;;;;5054345;28;20033;-74
2023/07/25 08:14:55;;;;;;;8.80;3.38;;;18.90;99.90;;;;;;5056311;28;20036;-72
2023/07/25 08:17:21;;;;;;;14.32;3.15;;;18.90;99.90;;;;;;5058676;28;20040;-70
2023/07/25 08:19:46;;;;;;;9.73;2.45;;;18.90;99.90;;;;;;5053275;28;20053;-73
2023/07/25 08:22:12;;;;;;;6.90;3.08;;;18.90;99.90;;;;;;5057799;28;20028;-71
2023/07/25 08:24:39;;;;;;;9.27;2.53;;;18.90;99.90;;;;;;5057356;28;20040;-72
2023/07/25 08:27:06;;;;;;;5.68;2.58;;;18.90;99.90;;;;;;5057553;28;20024;-72
2023/07/25 08:29:31;;;;;;;7.95;2.78;;;19.00;99.90;;;;;;5056072;28;20032;-74
2023/07/25 08:31:57;;;;;;;7.28;2.80;;;19.10;99.90;;;;;;5060056;28;20021;-73
2023/07/25 08:34:23;;;;;;;14.43;2.88;;;19.20;99.90;;;;;;5056520;28;20028;-72
2023/07/25 08:36:48;;;;;;;7.40;2.63;;;19.20;99.90;;;;;;5057901;28;20485;-72
2023/07/25 08:39:14;;;;;;;13.93;3.47;;;19.30;99.90;;;;;;5055386;28;20025;-73
2023/07/25 08:41:45;;;;;;;12.02;3.03;;;19.40;99.90;;;;;;5053997;28;20025;-73
2023/07/25 08:44:12;;;;;;;10.45;2.75;;;19.50;99.90;;;;;;5058488;28;20663;-72
2023/07/25 08:46:44;;;;;;;10.48;3.72;;;19.60;99.90;;;;;;5054699;28;20071;-72
2023/07/25 08:49:14;;;;;;;9.57;2.95;;;19.60;99.90;;;;;;5055361;28;20370;-73
2023/07/25 08:51:42;;;;;;;9.93;2.80;;;19.60;99.90;;;;;;5052074;28;20052;-73
2023/07/25 08:54:36;;;;;;;12.25;3.17;;;19.60;99.90;;;;;;5054816;28;20078;-71
2023/07/25 08:57:03;;;;;;;8.88;2.60;;;19.60;99.90;;;;;;5051647;28;20049;-73
2023/07/25 08:59:30;;;;;;;10.15;2.92;;;19.60;99.90;;;;;;5054865;28;20182;-73
2023/07/25 09:01:56;;;;;;;8.13;2.25;;;19.60;99.90;;;;;;5055391;28;20044;-72
2023/07/25 09:04:25;;;;;;;7.55;2.00;;;19.60;99.90;;;;;;5056229;28;20041;-72
2023/07/25 09:06:52;;;;;;;5.40;2.00;;;19.70;99.90;;;;;;5055015;28;20029;-73
2023/07/25 09:09:18;;;;;;;5.80;1.90;;;19.60;99.90;;;;;;5055858;28;20021;-73
2023/07/25 09:11:44;;;;;;;9.45;2.80;;;19.80;99.90;;;;;;5055094;28;20029;-74
2023/07/25 09:14:14;;;;;;;4.20;2.10;;;19.90;99.90;;;;;;5055519;28;20025;-73
2023/07/25 09:16:40;;;;;;;5.75;2.05;;;20.00;99.90;;;;;;5054712;28;20052;-72
2023/07/25 09:19:06;;;;;;;7.05;1.90;;;20.10;99.90;;;;;;5052798;28;20495;-72
2023/07/25 09:21:31;;;;;;;6.47;2.05;;;20.10;99.90;;;;;;5055274;28;20036;-73
2023/07/25 09:23:59;;;;;;;9.38;2.15;;;20.20;99.90;;;;;;5057289;28;20525;-74
2023/07/25 09:26:29;;;;;;;11.30;2.60;;;20.40;99.90;;;;;;5054837;28;20070;-74
2023/07/25 09:28:56;;;;;;;;;;;20.50;99.90;;;;;;5055473;28;20021;-74
2023/07/25 09:31:23;;;;;;;6.13;2.42;;;20.50;99.90;;;;;;5054976;28;19917;-73
2023/07/25 09:33:50;;;;;;;7.20;2.10;;;20.40;99.90;;;;;;5056332;28;20028;-73
2023/07/25 09:36:18;;;;;;;7.03;2.35;;;20.40;99.90;;;;;;5055469;28;20107;-73
2023/07/25 09:38:55;;;;;;;4.97;2.00;;;20.40;99.90;;;;;;5049237;28;20021;-72
2023/07/25 09:41:22;;;;;;;7.15;1.90;;;20.50;99.90;;;;;;5059290;28;20032;-73
2023/07/25 09:43:49;;;;;;;6.30;2.28;;;20.60;99.90;;;;;;5054221;28;20056;-75
2023/07/25 09:46:15;;;;;;;7.43;2.70;;;20.70;99.90;;;;;;5059651;28;20060;-74
2023/07/25 09:48:50;;;;;;;5.55;2.28;;;20.90;99.90;;;;;;5056710;28;20021;-73
2023/07/25 09:51:16;;;;;;;11.80;2.30;;;20.80;99.90;;;;;;5054895;28;20017;-73
2023/07/25 09:53:43;;;;;;;6.97;2.13;;;20.70;99.90;;;;;;5057155;28;20075;-74
2023/07/25 09:56:10;;;;;;;5.82;2.17;;;21.00;99.90;;;;;;5056564;28;20055;-73
2023/07/25 09:58:36;;;;;;;5.68;2.60;;;21.20;99.90;;;;;;5056404;28;20077;-75
2023/07/25 10:01:04;;;;;;;6.50;2.00;;;21.10;99.90;;;;;;5057399;28;20476;-73
2023/07/25 10:03:30;;;;;;;6.90;1.80;;;20.90;99.90;;;;;;5057008;28;20064;-73
2023/07/25 10:05:59;;;;;;;4.30;2.00;;;20.70;99.90;;;;;;5057327;28;20064;-72
2023/07/25 10:08:28;;;;;;;8.57;3.10;;;20.60;99.90;;;;;;5058261;28;20047;-73
2023/07/25 10:10:55;;;;;;;5.97;2.33;;;20.60;99.90;;;;;;5055747;28;20033;-73
2023/07/25 10:13:22;;;;;;;5.05;1.90;;;20.80;99.90;;;;;;5056852;28;20032;-73
2023/07/25 10:15:49;;;;;;;4.75;1.50;;;20.90;99.90;;;;;;5058050;28;20021;-73
2023/07/25 10:18:25;;;;;;;4.40;1.92;;;21.20;99.90;;;;;;5051466;28;20636;-73
2023/07/25 10:20:52;;;;;;;6.10;1.63;;;21.40;99.90;;;;;;5053778;28;20029;-74
2023/07/25 10:23:18;;;;;;;5.35;2.00;;;21.40;99.90;;;;;;5055575;28;20053;-73
2023/07/25 10:25:44;;;;;;;4.15;1.75;;;21.30;99.90;;;;;;5057565;28;20033;-73
2023/07/25 10:28:11;;;;;;;7.25;1.95;;;21.30;99.90;;;;;;5057902;28;20025;-72
2023/07/25 10:30:45;;;;;;;9.50;2.05;;;21.10;99.90;;;;;;5055858;28;20075;-73
2023/07/25 10:33:13;;;;;;;3.80;1.95;;;20.90;99.90;;;;;;5055126;28;20052;-73
2023/07/25 10:35:52;;;;;;;7.40;1.95;;;21.10;99.90;;;;;;5052702;28;20025;-73
2023/07/25 10:38:22;;;;;;;4.93;2.00;;;21.30;99.90;;;;;;5056908;28;20021;-75
2023/07/25 10:41:18;;;;;;;6.97;1.90;;;21.50;99.90;;;;;;5058521;28;20280;-74
2023/07/25 10:43:52;;;;;;;5.90;1.95;;;21.70;99.90;;;;;;5058181;28;20536;-73
2023/07/25 10:46:22;;;;;;;3.38;1.80;;;21.90;99.90;;;;;;5058882;28;20492;-73
2023/07/25 10:49:11;;;;;;;;;;;22.10;99.90;;;;;;5055254;28;20017;-74
2023/07/25 10:51:51;;;;;;;4.30;1.65;;;22.10;99.90;;;;;;5054937;28;19904;-75
2023/07/25 10:54:18;;;;;;;5.88;1.95;;;22.10;99.90;;;;;;5059106;28;20028;-76
2023/07/25 10:57:24;;;;;;;6.68;2.10;;;22.00;99.90;;;;;;5058996;28;20048;-73
2023/07/25 11:00:00;;;;;;;5.03;1.52;;;22.20;99.90;;;;;;5055748;28;20037;-73
2023/07/25 11:02:33;;;;;;;4.10;2.00;;;22.50;99.90;;;;;;5057520;28;20021;-74
2023/07/25 11:05:14;;;;;;;7.50;1.90;;;22.50;99.90;;;;;;5049368;28;20045;-74
2023/07/25 11:07:47;;;;;;;3.65;1.63;;;22.10;99.90;;;;;;5054959;28;20029;-74
2023/07/25 11:10:27;;;;;;;6.93;2.20;;;22.00;99.90;;;;;;5061297;28;20025;-73
2023/07/25 11:12:56;;;;;;;5.25;1.80;;;21.70;99.90;;;;;;5065135;28;20025;-74
2023/07/25 11:15:22;;;;;;;5.20;1.67;;;21.50;99.90;;;;;;5055822;28;20036;-73
2023/07/25 11:17:48;;;;;;;7.45;1.73;;;21.40;99.90;;;;;;5056459;28;20024;-74
2023/07/25 11:20:22;;;;;;;5.90;1.55;;;21.50;99.90;;;;;;5060187;28;20361;-74
2023/07/25 11:22:52;;;;;;;10.65;1.90;;;21.50;99.90;;;;;;5060632;28;20045;-73
2023/07/25 11:25:18;;;;;;;7.57;2.30;;;21.60;99.90;;;;;;5058626;28;20082;-73
2023/07/25 11:27:46;;;;;;;5.22;1.85;;;21.80;99.90;;;;;;5053298;28;20029;-72
2023/07/25 11:30:19;;;;;;;5.82;1.42;;;22.00;99.90;;;;;;5056769;28;20036;-72
2023/07/25 11:32:54;;;;;;;6.40;1.88;;;21.90;99.90;;;;;;5057918;28;20025;-72
2023/07/25 11:35:21;;;;;;;6.50;1.90;;;21.90;99.90;;;;;;5059869;28;20480;-73
2023/07/25 11:37:49;;;;;;;7.05;1.60;;;21.90;99.90;;;;;;5058161;28;20029;-72
2023/07/25 11:40:15;;;;;;;5.43;1.67;;;22.00;99.90;;;;;;5052559;28;20029;-74
2023/07/25 11:42:43;;;;;;;5.53;1.92;;;21.80;99.90;;;;;;5060803;28;20025;-72
2023/07/25 11:45:13;;;;;;;4.63;1.50;;;21.50;99.90;;;;;;5054719;28;20036;-73
2023/07/25 11:47:44;;;;;;;3.33;1.60;;;21.40;99.90;;;;;;5055199;28;20021;-72
2023/07/25 11:50:11;;;;;;;2.13;1.50;;;21.30;99.90;;;;;;5055109;28;20020;-74
2023/07/25 11:52:40;;;;;;;4.57;1.55;;;21.10;99.90;;;;;;5056109;28;20455;-73
2023/07/25 11:55:08;;;;;;;9.20;2.80;;;21.00;99.90;;;;;;5055255;28;20781;-75
2023/07/25 11:57:40;;;;;;;7.53;2.22;;;20.90;99.90;;;;;;5056190;28;20170;-74
2023/07/25 12:00:15;;;;;;;2.80;1.40;;;21.00;99.90;;;;;;5055853;28;20025;-73
2023/07/25 12:02:41;;;;;;;9.07;2.17;;;21.20;99.90;;;;;;5061320;28;20027;-75
2023/07/25 12:05:09;;;;;;;6.00;2.13;;;21.20;99.90;;;;;;5056923;28;20036;-73
2023/07/25 12:07:47;;;;;;;5.85;1.75;;;21.10;99.90;;;;;;5057995;28;20025;-73
2023/07/25 12:10:13;;;;;;;5.40;1.60;;;20.90;99.90;;;;;;5052861;28;20025;-72
2023/07/25 12:12:41;;;;;;;4.28;1.63;;;20.80;99.90;;;;;;5062186;28;20016;-75
2023/07/25 12:15:07;;;;;;;8.55;2.42;;;20.60;99.90;;;;;;5057578;28;20029;-73
2023/07/25 12:17:45;;;;;;;5.40;2.13;;;20.50;99.90;;;;;;5056324;28;20035;-73
2023/07/25 12:20:16;;;;;;;7.00;1.92;;;20.50;99.90;;;;;;5055207;28;20025;-74
2023/07/25 12:22:42;;;;;;;;;;;20.40;99.90;;;;;;5056208;28;20044;-73
2023/07/25 12:25:08;;;;;;;7.03;2.25;;;20.40;99.90;;;;;;5057754;28;19916;-73
2023/07/25 12:27:33;;;;;;;5.00;2.03;;;20.40;99.90;;;;;;5051324;28;20031;-73
2023/07/25 12:29:59;;;;;;;12.27;2.97;;;20.40;99.90;;;;;;5061580;28;20087;-72
2023/07/25 12:32:25;;;;;;;5.93;2.15;;;20.30;99.90;;;;;;5052662;28;20374;-73
2023/07/25 12:34:50;;;;;;;4.82;1.75;;;20.30;99.90;;;;;;5057759;28;20024;-73
2023/07/25 12:37:16;;;;;;;7.50;1.90;;;20.40;99.90;;;;;;5055348;28;20032;-74
2023/07/25 12:39:42;;;;;;;9.27;2.05;;;20.70;99.90;;;;;;5055745;28;20032;-75
2023/07/25 12:42:07;;;;;;;3.55;1.55;;;20.80;99.90;;;;;;5054319;28;20082;-72
2023/07/25 12:44:34;;;;;;;7.70;1.85;;;20.80;99.90;;;;;;5060043;28;20487;-71